Time;durP1;ratioP1;P1;durP2;ratioP2;P2;SDS_P1;SDS_P2;PMS_P1;PMS_P2;Temp;Humidity;BMP_temperature;BMP_pressure;BME280_temperature;BME280_humidity;BME280_pressure;Samples;Min_cycle;Max_cycle;Signal;HPM_P1;HPM_P2
2022/01/06 00:01:08;;;;;;;1.13;0.88;;;;;;;;;;4921104;29;20032;-94
2022/01/06 00:03:35;;;;;;;5.20;2.47;;;;;;;;;;4946334;29;20027;-95
2022/01/06 00:06:07;;;;;;;4.45;1.73;;;;;;;;;;4935516;29;20748;-95
2022/01/06 00:08:35;;;;;;;2.20;0.98;;;;;;;;;;4937884;29;20115;-94
2022/01/06 00:11:01;;;;;;;4.30;1.33;;;;;;;;;;4936391;29;20035;-95
2022/01/06 00:24:14;;;;;;;4.22;1.58;;;;;;;;;;4935246;29;20046;-94
2022/01/06 00:26:40;;;;;;;3.35;1.25;;;;;;;;;;4934181;29;20119;-94
2022/01/06 00:29:06;;;;;;;1.90;1.38;;;;;;;;;;4930387;29;20043;-94
2022/01/06 00:31:33;;;;;;;4.32;1.20;;;;;;;;;;4934696;29;20020;-94
2022/01/06 00:33:59;;;;;;;5.20;1.27;;;;;;;;;;4934676;29;20044;-94
2022/01/06 00:36:25;;;;;;;1.75;1.27;;;;;;;;;;4918407;29;20040;-93
2022/01/06 00:38:51;;;;;;;4.50;1.80;;;;;;;;;;4918904;29;20118;-94
2022/01/06 00:41:17;;;;;;;2.38;1.40;;;;;;;;;;4935194;29;20107;-93
2022/01/06 00:43:43;;;;;;;1.38;1.08;;;;;;;;;;4915525;29;20870;-94
2022/01/06 00:46:09;;;;;;;1.33;1.08;;;;;;;;;;4914751;29;20039;-94
2022/01/06 00:48:35;;;;;;;8.32;2.30;;;;;;;;;;4934465;29;20445;-93
2022/01/06 00:51:01;;;;;;;7.75;1.65;;;;;;;;;;4918372;29;20067;-94
2022/01/06 00:53:27;;;;;;;3.72;1.35;;;;;;;;;;4945189;29;20034;-93
2022/01/06 00:55:53;;;;;;;1.30;0.95;;;;;;;;;;4948869;29;20058;-94
2022/01/06 00:58:20;;;;;;;2.00;1.17;;;;;;;;;;4938738;29;20070;-95
2022/01/06 01:00:46;;;;;;;3.55;1.02;;;;;;;;;;4955323;28;20023;-93
2022/01/06 01:03:13;;;;;;;6.20;1.27;;;;;;;;;;4955596;29;20027;-94
2022/01/06 01:05:40;;;;;;;0.88;0.80;;;;;;;;;;4955524;29;20032;-94
2022/01/06 01:08:06;;;;;;;5.35;2.15;;;;;;;;;;4968976;28;20035;-94
2022/01/06 01:10:32;;;;;;;6.78;1.50;;;;;;;;;;4938159;28;20028;-94
2022/01/06 01:12:58;;;;;;;1.90;1.30;;;;;;;;;;4928451;29;20038;-94
2022/01/06 01:15:26;;;;;;;4.45;1.05;;;;;;;;;;4938258;29;20027;-94
2022/01/06 01:17:52;;;;;;;0.93;0.77;;;;;;;;;;4938461;29;20570;-95
2022/01/06 01:20:19;;;;;;;2.10;1.90;;;;;;;;;;4956625;28;20027;-94
2022/01/06 01:22:45;;;;;;;2.42;1.35;;;;;;;;;;4948202;29;20047;-94
2022/01/06 01:25:12;;;;;;;1.40;1.30;;;;;;;;;;4953779;29;20042;-95
2022/01/06 01:27:41;;;;;;;0.70;0.70;;;;;;;;;;4953108;29;20037;-95
2022/01/06 01:30:13;;;;;;;2.25;1.33;;;;;;;;;;4947096;28;20573;-95
2022/01/06 01:32:40;;;;;;;0.68;0.65;;;;;;;;;;4954225;29;20027;-93
2022/01/06 01:35:08;;;;;;;5.35;1.20;;;;;;;;;;4954685;28;20023;-93
2022/01/06 01:37:34;;;;;;;5.90;1.73;;;;;;;;;;4953688;28;20043;-94
2022/01/06 01:40:00;;;;;;;3.20;1.20;;;;;;;;;;4963897;28;20027;-95
2022/01/06 01:42:27;;;;;;;0.55;0.55;;;;;;;;;;4962509;28;20035;-94
2022/01/06 01:44:53;;;;;;;4.30;2.10;;;;;;;;;;4953977;28;20042;-94
2022/01/06 01:47:32;;;;;;;0.70;0.70;;;;;;;;;;4965832;28;20149;-94
2022/01/06 01:50:12;;;;;;;1.20;0.90;;;;;;;;;;4935956;29;20052;-94
2022/01/06 01:52:39;;;;;;;0.95;0.85;;;;;;;;;;4946182;29;20026;-94
2022/01/06 01:55:05;;;;;;;2.45;1.50;;;;;;;;;;4942673;28;20090;-94
2022/01/06 01:57:31;;;;;;;3.53;1.52;;;;;;;;;;4964527;28;20047;-93
2022/01/06 01:59:57;;;;;;;1.38;1.27;;;;;;;;;;4934391;29;20456;-94
2022/01/06 02:02:24;;;;;;;2.17;1.48;;;;;;;;;;4936973;29;20032;-95
2022/01/06 02:04:52;;;;;;;1.15;0.95;;;;;;;;;;4954529;29;20111;-94
2022/01/06 02:07:18;;;;;;;4.22;1.02;;;;;;;;;;4954421;29;20056;-93
2022/01/06 02:09:44;;;;;;;6.15;1.17;;;;;;;;;;4954467;28;20038;-94
2022/01/06 02:12:11;;;;;;;10.30;1.27;;;;;;;;;;4955147;28;20027;-94
2022/01/06 02:14:38;;;;;;;1.95;1.20;;;;;;;;;;4954789;29;20488;-94
2022/01/06 02:17:04;;;;;;;;;;;5.90;72.30;;;;;;4937839;29;20050;-93
2022/01/06 02:19:30;;;;;;;4.40;0.82;;;;;;;;;;4937289;29;19910;-94
2022/01/06 02:21:56;;;;;;;3.90;0.70;;;;;;;;;;4954004;29;20058;-94
2022/01/06 02:24:22;;;;;;;3.08;1.23;;;;;;;;;;4937170;29;20031;-94
2022/01/06 02:26:48;;;;;;;1.40;1.08;;;;;;;;;;4934358;29;20107;-94
2022/01/06 02:29:14;;;;;;;1.35;0.65;;;;;;;;;;4955043;29;20036;-94
2022/01/06 02:31:45;;;;;;;1.33;1.08;;;;;;;;;;4935120;29;20044;-93
2022/01/06 02:34:11;;;;;;;1.42;1.15;;;;;;;;;;4949421;29;20408;-95
2022/01/06 02:36:37;;;;;;;1.35;1.10;;;;;;;;;;4942522;29;20043;-94
2022/01/06 02:39:04;;;;;;;11.55;2.33;;;;;;;;;;4946727;29;20062;-94
2022/01/06 02:41:30;;;;;;;0.85;0.82;;;;;;;;;;4954321;29;20023;-94
2022/01/06 02:43:56;;;;;;;4.97;1.00;;;;;;;;;;4953326;29;20031;-95
2022/01/06 02:46:22;;;;;;;1.10;1.00;;;;;;;;;;4942777;28;20204;-95
2022/01/06 02:48:48;;;;;;;1.13;0.95;;;;;;;;;;4960646;28;20027;-94
2022/01/06 02:51:14;;;;;;;4.68;2.30;;;;;;;;;;4954556;29;20034;-95
2022/01/06 02:53:40;;;;;;;1.65;0.80;;;;;;;;;;4954053;28;20035;-94
2022/01/06 02:56:06;;;;;;;10.63;5.53;;;;;;;;;;4955266;28;20042;-94
2022/01/06 02:58:32;;;;;;;9.30;1.88;;;;;;;;;;4948242;29;20516;-94
2022/01/06 03:00:58;;;;;;;2.40;1.38;;;;;;;;;;4957589;28;20023;-93
2022/01/06 03:03:24;;;;;;;2.92;1.52;;;;;;;;;;4949704;29;20031;-93
2022/01/06 03:05:50;;;;;;;5.80;1.58;;;;;;;;;;4937670;29;20043;-94
2022/01/06 03:08:19;;;;;;;5.47;1.83;;;;;;;;;;4938668;29;20043;-94
2022/01/06 03:10:45;;;;;;;4.07;1.10;;;;;;;;;;4957002;28;20039;-94
2022/01/06 03:13:11;;;;;;;3.83;0.68;;;;;;;;;;4957492;29;20621;-93
2022/01/06 03:15:37;;;;;;;12.88;1.50;;;;;;;;;;4957285;29;20049;-94
2022/01/06 03:18:03;;;;;;;1.45;1.05;;;;;;;;;;4937766;29;20130;-94
2022/01/06 03:20:29;;;;;;;1.38;0.95;;;;;;;;;;4939663;29;20032;-96
2022/01/06 03:22:56;;;;;;;3.57;1.00;;;;;;;;;;4955208;29;20040;-95
2022/01/06 03:25:22;;;;;;;2.00;1.40;;;;;;;;;;4955423;29;20684;-94
2022/01/06 03:27:49;;;;;;;2.67;1.60;;;;;;;;;;4954928;29;20027;-94
2022/01/06 03:30:16;;;;;;;1.30;1.25;;;;;;;;;;4953368;29;20057;-95
2022/01/06 03:32:42;;;;;;;8.68;1.80;;;;;;;;;;4938063;29;20022;-95
2022/01/06 03:35:09;;;;;;;8.00;1.10;;;;;;;;;;4956136;29;20035;-94
2022/01/06 03:37:35;;;;;;;3.50;1.83;;;;;;;;;;4955041;29;20063;-95
2022/01/06 03:40:04;;;;;;;5.45;1.05;;;;;;;;;;4944635;29;20501;-95
2022/01/06 03:42:31;;;;;;;4.57;1.30;;;;;;;;;;4937358;29;20059;-95
2022/01/06 03:44:57;;;;;;;3.42;2.13;;;;;;;;;;4939186;29;20088;-94
2022/01/06 03:47:23;;;;;;;6.95;0.93;;;;;;;;;;4962437;28;20035;-95
2022/01/06 03:49:49;;;;;;;0.75;0.73;;;;;;;;;;4938493;29;20027;-94
2022/01/06 03:52:15;;;;;;;1.25;0.82;;;;;;;;;;4936738;29;20031;-93
2022/01/06 03:54:41;;;;;;;3.95;0.90;;;;;;;;;;4947978;29;20031;-94
2022/01/06 03:57:08;;;;;;;0.73;0.73;;;;;;;;;;4954500;29;20028;-94
2022/01/06 03:59:34;;;;;;;2.70;0.75;;;;;;;;;;4956420;28;20122;-92
2022/01/06 04:02:00;;;;;;;2.50;1.13;;;;;;;;;;4957159;29;20027;-94
2022/01/06 04:04:26;;;;;;;4.57;1.35;;;;;;;;;;4955580;29;20110;-94
2022/01/06 04:06:52;;;;;;;4.22;1.20;;;;;;;;;;4949381;29;20944;-93
2022/01/06 04:09:18;;;;;;;6.38;1.52;;;;;;;;;;4949477;29;20035;-94
2022/01/06 04:11:44;;;;;;;0.57;0.57;;;;;;;;;;4938583;29;20161;-94
2022/01/06 04:14:10;;;;;;;1.65;1.20;;;;;;;;;;4935907;29;20493;-94
2022/01/06 04:16:38;;;;;;;3.55;0.77;;;;;;;;;;4955538;29;20031;-96
2022/01/06 04:19:04;;;;;;;1.50;0.85;;;;;;;;;;4952996;28;20031;-92
2022/01/06 04:21:30;;;;;;;16.92;2.03;;;;;;;;;;4956443;29;20461;-95
2022/01/06 04:23:57;;;;;;;6.57;0.77;;;;;;;;;;4935755;29;20039;-95
2022/01/06 04:26:23;;;;;;;4.75;1.95;;;;;;;;;;4937104;29;20023;-93
2022/01/06 04:28:49;;;;;;;1.48;1.38;;;;;;;;;;4955000;29;20515;-94
2022/01/06 04:31:15;;;;;;;1.10;1.00;;;;;;;;;;4956136;29;20028;-94
2022/01/06 04:33:41;;;;;;;1.15;0.90;;;;;;;;;;4956527;28;20122;-93
2022/01/06 04:36:08;;;;;;;2.80;1.20;;;;;;;;;;4935923;29;20524;-93
2022/01/06 04:38:36;;;;;;;1.48;0.98;;;;;;;;;;4937098;29;20035;-93
2022/01/06 04:41:02;;;;;;;10.20;5.50;;;;;;;;;;4937074;29;20042;-93
2022/01/06 04:43:28;;;;;;;2.65;2.08;;;;;;;;;;4953880;29;20031;-93
2022/01/06 04:45:54;;;;;;;2.65;1.60;;;;;;;;;;4940876;28;20030;-94
2022/01/06 04:48:20;;;;;;;2.50;1.10;;;;;;;;;;4963123;28;20047;-93
2022/01/06 04:50:46;;;;;;;6.15;1.33;;;;;;;;;;4938758;29;20031;-94
2022/01/06 04:53:12;;;;;;;0.95;0.90;;;;;;;;;;4955748;29;20031;-93
2022/01/06 04:55:38;;;;;;;1.98;0.90;;;;;;;;;;4955528;28;20412;-95
2022/01/06 04:58:05;;;;;;;10.25;0.90;;;;;;;;;;4954465;28;20039;-93
2022/01/06 05:00:31;;;;;;;4.20;1.75;;;;;;;;;;4945726;29;20043;-94
2022/01/06 05:02:57;;;;;;;0.68;0.68;;;;;;;;;;4942107;28;20034;-96
2022/01/06 05:05:23;;;;;;;2.70;1.67;;;;;;;;;;4955361;28;20086;-94
2022/01/06 05:07:49;;;;;;;10.63;0.90;;;;;;;;;;4936864;29;20035;-94
2022/01/06 05:10:15;;;;;;;1.75;0.73;;;;;;;;;;4946628;29;20050;-93
2022/01/06 05:12:42;;;;;;;2.10;1.05;;;;;;;;;;4954725;29;20031;-95
2022/01/06 05:15:09;;;;;;;2.78;1.00;;;;;;;;;;4955976;29;20481;-94
2022/01/06 05:17:35;;;;;;;10.68;1.25;;;;;;;;;;4955753;28;20145;-94
2022/01/06 05:20:01;;;;;;;11.60;1.15;;;;;;;;;;4938509;28;20066;-93
2022/01/06 05:22:28;;;;;;;8.98;1.52;;;;;;;;;;4934811;29;20067;-93
2022/01/06 05:24:55;;;;;;;1.98;1.10;;;;;;;;;;4948822;28;20441;-94
2022/01/06 05:27:21;;;;;;;3.95;1.30;;;;;;;;;;4945799;29;20050;-94
2022/01/06 05:29:47;;;;;;;1.58;0.95;;;;;;;;;;4938543;29;20024;-94
2022/01/06 05:32:13;;;;;;;0.73;0.73;;;;;;;;;;4955465;28;20023;-94
2022/01/06 05:34:39;;;;;;;4.70;1.40;;;;;;;;;;4954825;28;20445;-93
2022/01/06 05:37:05;;;;;;;1.75;0.95;;;;;;;;;;4937963;29;20098;-94
2022/01/06 05:39:31;;;;;;;8.48;1.08;;;;;;;;;;4946073;29;20502;-93
2022/01/06 05:41:57;;;;;;;3.05;1.27;;;;;;;;;;4935043;29;20108;-94
2022/01/06 05:44:24;;;;;;;4.70;1.30;;;;;;;;;;4935415;29;20080;-94
2022/01/06 05:46:50;;;;;;;2.25;0.93;;;;;;;;;;4964745;28;20114;-93
2022/01/06 05:49:16;;;;;;;3.75;1.33;;;;;;;;;;4957364;28;20085;-94
2022/01/06 05:51:42;;;;;;;3.60;1.33;;;;;;;;;;4954821;29;20131;-95
2022/01/06 05:54:08;;;;;;;2.90;0.93;;;;;;;;;;4949944;29;20453;-95
2022/01/06 05:56:34;;;;;;;8.02;1.30;;;;;;;;;;4950726;29;20028;-93
2022/01/06 05:59:00;;;;;;;6.07;1.83;;;;;;;;;;4947963;29;20492;-94
2022/01/06 06:01:26;;;;;;;1.13;0.93;;;;;;;;;;4939255;29;20058;-95
2022/01/06 06:03:54;;;;;;;3.53;1.58;;;;;;;;;;4941944;29;20063;-94
2022/01/06 06:06:20;;;;;;;6.57;1.08;;;;;;;;;;4954623;29;20039;-95
2022/01/06 06:08:46;;;;;;;1.48;1.10;;;;;;;;;;4937786;29;20492;-94
2022/01/06 06:11:12;;;;;;;1.00;0.90;;;;;;;;;;4954615;29;20038;-94
2022/01/06 06:13:38;;;;;;;2.78;1.42;;;;;;;;;;4947926;28;20110;-94
2022/01/06 06:16:04;;;;;;;1.08;0.80;;;;;;;;;;4942468;29;20035;-94
2022/01/06 06:18:31;;;;;;;0.80;0.80;;;;;;;;;;4944041;28;20035;-94
2022/01/06 06:20:57;;;;;;;1.42;0.82;;;;;;;;;;4948660;29;20051;-95
2022/01/06 06:23:23;;;;;;;24.60;2.20;;;;;;;;;;4936163;29;20031;-93
2022/01/06 06:25:49;;;;;;;2.72;1.10;;;;;;;;;;4953649;29;20035;-94
2022/01/06 06:28:15;;;;;;;1.75;1.38;;;;;;;;;;4954449;29;20091;-93
2022/01/06 06:30:41;;;;;;;5.05;1.88;;;;;;;;;;4945704;28;20035;-94
2022/01/06 06:33:07;;;;;;;3.60;1.38;;;;;;;;;;4945679;28;20083;-94
2022/01/06 06:35:33;;;;;;;6.07;2.45;;;;;;;;;;4954129;28;20035;-94
2022/01/06 06:37:59;;;;;;;2.08;1.13;;;;;;;;;;4954112;28;20043;-94
2022/01/06 06:40:25;;;;;;;1.20;1.05;;;;;;;;;;4940725;29;20069;-94
2022/01/06 06:42:52;;;;;;;2.13;1.00;;;;;;;;;;4939738;28;20884;-93
2022/01/06 06:45:19;;;;;;;2.28;1.65;;;;;;;;;;4962215;28;20088;-95
2022/01/06 06:47:45;;;;;;;1.95;0.80;;;;;;;;;;4951467;28;20047;-94
2022/01/06 06:50:14;;;;;;;1.40;0.93;;;;;;;;;;4957563;28;20884;-95
2022/01/06 06:52:40;;;;;;;2.40;1.55;;;;;;;;;;4946711;29;20034;-96
2022/01/06 06:55:07;;;;;;;10.73;2.35;;;;;;;;;;4940512;29;20409;-94
2022/01/06 06:57:33;;;;;;;5.40;2.28;;;;;;;;;;4945587;29;20028;-95
2022/01/06 07:00:03;;;;;;;9.85;2.85;;;;;;;;;;4935390;29;20038;-96
2022/01/06 07:02:29;;;;;;;3.25;1.35;;;;;;;;;;4939073;29;20560;-95
2022/01/06 07:04:55;;;;;;;1.15;1.05;;;;;;;;;;4950396;28;20036;-95
2022/01/06 07:07:21;;;;;;;6.20;1.73;;;;;;;;;;4924476;29;20119;-95
2022/01/06 07:09:47;;;;;;;13.00;1.60;;;;;;;;;;4937394;29;20036;-93
2022/01/06 07:12:13;;;;;;;1.90;1.08;;;;;;;;;;4943957;29;20031;-95
2022/01/06 07:14:39;;;;;;;5.43;2.20;;;;;;;;;;4954058;29;20114;-95
2022/01/06 07:17:06;;;;;;;5.78;2.35;;;;;;;;;;4957120;28;20047;-94
2022/01/06 07:19:32;;;;;;;5.55;2.55;;;;;;;;;;4954065;29;20027;-94
2022/01/06 07:21:58;;;;;;;12.43;5.90;;;;;;;;;;4957428;28;20062;-94
2022/01/06 07:24:24;;;;;;;9.13;3.95;;;;;;;;;;4951941;29;20031;-94
2022/01/06 07:26:50;;;;;;;5.40;3.17;;;;;;;;;;4937525;29;20118;-95
2022/01/06 07:29:16;;;;;;;3.42;1.50;;;;;;;;;;4939392;28;20089;-94
2022/01/06 07:31:42;;;;;;;1.30;1.20;;;;;;;;;;4939738;28;20074;-96
2022/01/06 07:34:08;;;;;;;7.88;1.40;;;;;;;;;;4954513;29;20027;-95
2022/01/06 07:36:34;;;;;;;6.82;2.17;;;;;;;;;;4948620;29;20407;-94
2022/01/06 07:39:00;;;;;;;5.07;2.22;;;;;;;;;;4941796;29;20501;-95
2022/01/06 07:41:40;;;;;;;1.80;1.27;;;;;;;;;;4940134;29;20079;-96
2022/01/06 07:44:07;;;;;;;9.02;3.10;;;;;;;;;;4955433;28;20047;-96
2022/01/06 07:46:37;;;;;;;6.15;1.60;;;;;;;;;;4965100;28;20085;-96
2022/01/06 07:49:03;;;;;;;2.78;2.47;;;;;;;;;;4953433;28;20031;-96
2022/01/06 07:51:30;;;;;;;13.32;1.70;;;;;;;;;;4948139;28;20484;-96
2022/01/06 07:53:58;;;;;;;5.23;1.33;;;;;;;;;;4953390;29;20060;-96
2022/01/06 07:56:24;;;;;;;3.58;1.10;;;;;;;;;;4942728;29;20087;-96
2022/01/06 07:58:50;;;;;;;3.72;1.92;;;;;;;;;;4958648;29;20512;-96
2022/01/06 08:01:17;;;;;;;2.65;1.38;;;;;;;;;;4933409;29;20052;-96
2022/01/06 08:03:43;;;;;;;1.83;1.58;;;;;;;;;;4920195;29;20031;-96
2022/01/06 08:06:09;;;;;;;2.40;1.23;;;;;;;;;;4919389;29;20023;-96
2022/01/06 08:08:36;;;;;;;3.07;1.40;;;;;;;;;;4934501;29;20046;-96
2022/01/06 08:11:02;;;;;;;1.20;1.10;;;;;;;;;;4922462;29;20116;-96
2022/01/06 08:13:28;;;;;;;5.38;1.27;;;;;;;;;;4917483;29;20059;-96
2022/01/06 08:15:54;;;;;;;3.03;2.65;;;;;;;;;;4914012;29;20028;-95
2022/01/06 08:18:20;;;;;;;4.40;1.25;;;;;;;;;;4932982;29;20044;-96
2022/01/06 08:20:46;;;;;;;2.00;1.77;;;;;;;;;;4936208;29;20084;-96
2022/01/06 08:23:12;;;;;;;1.55;1.17;;;;;;;;;;4922403;29;20040;-95
2022/01/06 08:25:38;;;;;;;4.93;0.88;;;;;;;;;;4932060;29;20032;-95
2022/01/06 08:28:05;;;;;;;9.15;1.13;;;;;;;;;;4930937;29;21363;-94
2022/01/06 08:30:31;;;;;;;1.73;0.90;;;;;;;;;;4909014;29;20031;-95
2022/01/06 08:32:57;;;;;;;1.48;1.00;;;;;;;;;;4901435;29;20028;-96
2022/01/06 08:35:23;;;;;;;4.15;1.08;;;;;;;;;;4915911;29;20071;-95
2022/01/06 08:37:50;;;;;;;0.90;0.70;;;;;;;;;;4916187;29;20044;-96
2022/01/06 08:40:16;;;;;;;5.47;1.50;;;;;;;;;;4904653;29;20509;-96
2022/01/06 08:42:42;;;;;;;3.45;1.05;;;;;;;;;;4925629;29;20036;-95
2022/01/06 08:45:09;;;;;;;2.83;1.60;;;;;;;;;;4918385;29;20032;-96
2022/01/06 08:47:35;;;;;;;7.72;1.40;;;;;;;;;;4927117;29;20409;-96
2022/01/06 08:50:01;;;;;;;2.65;1.25;;;;;;;;;;4930618;29;20106;-95
2022/01/06 08:52:27;;;;;;;1.55;1.45;;;;;;;;;;4902720;29;20046;-96
2022/01/06 08:54:53;;;;;;;3.20;1.33;;;;;;;;;;4918043;29;20035;-96
2022/01/06 08:57:22;;;;;;;5.88;1.55;;;;;;;;;;4926899;29;20081;-96
2022/01/06 08:59:51;;;;;;;3.30;1.30;;;;;;;;;;4942241;29;20489;-96
2022/01/06 09:02:17;;;;;;;2.22;1.35;;;;;;;;;;4930651;29;20051;-94
2022/01/06 09:04:43;;;;;;;2.25;1.50;;;;;;;;;;4916336;29;20030;-94
2022/01/06 09:07:09;;;;;;;2.22;1.33;;;;;;;;;;4935087;29;20057;-93
2022/01/06 09:09:37;;;;;;;2.50;1.70;;;;;;;;;;4917477;29;20028;-94
2022/01/06 09:12:05;;;;;;;;;;;;;;;;;;4935678;29;20106;-95
2022/01/06 09:14:31;;;;;;;1.92;1.42;;;;;;;;;;4936204;29;20282;-95
2022/01/06 09:16:57;;;;;;;7.45;1.42;;;;;;;;;;4936059;29;20039;-95
2022/01/06 09:19:23;;;;;;;3.05;1.35;;;;;;;;;;4906290;29;20043;-96
2022/01/06 09:21:49;;;;;;;6.32;2.50;;;;;;;;;;4919650;29;20051;-93
2022/01/06 09:24:15;;;;;;;3.00;1.85;;;;;;;;;;4927935;29;20037;-95
2022/01/06 09:26:41;;;;;;;5.93;1.92;;;;;;;;;;4915962;29;20125;-95
2022/01/06 09:29:08;;;;;;;0.90;0.90;;;;;;;;;;4934414;29;20035;-95
2022/01/06 09:31:36;;;;;;;3.97;0.98;;;;;;;;;;4934318;29;20031;-92
2022/01/06 09:34:02;;;;;;;;;;;;;;;;;;4927793;29;20118;-92
2022/01/06 09:36:28;;;;;;;0.93;0.90;;;;;;;;;;4917703;29;19986;-96
2022/01/06 09:38:55;;;;;;;1.90;1.33;;;;;;;;;;4915130;29;20553;-95
2022/01/06 09:41:22;;;;;;;5.05;1.15;;;;;;;;;;4917045;29;20028;-94
2022/01/06 09:43:52;;;;;;;1.77;1.02;;;;;;;;;;4938494;29;20036;-96
2022/01/06 09:46:20;;;;;;;2.97;1.15;;;;;;;;;;4927082;29;20032;-96
2022/01/06 09:48:46;;;;;;;3.92;1.05;;;;;;;;;;4935232;29;20035;-95
2022/01/06 09:51:12;;;;;;;1.60;1.50;;;;;;;;;;4934476;29;20520;-94
2022/01/06 09:53:40;;;;;;;2.83;1.15;;;;;;;;;;4919950;29;20032;-95
2022/01/06 09:56:06;;;;;;;3.70;0.93;;;;;;;;;;4930002;29;20433;-96
2022/01/06 09:58:32;;;;;;;1.40;0.73;;;;;;;;;;4927726;29;20133;-96
2022/01/06 10:00:58;;;;;;;4.57;1.13;;;;;;;;;;4936546;29;20556;-96
2022/01/06 10:03:36;;;;;;;6.43;1.15;;;;;;;;;;4934108;29;20086;-96
2022/01/06 10:06:16;;;;;;;2.22;2.03;;;;;;;;;;4929631;29;20037;-96
2022/01/06 10:08:43;;;;;;;5.72;1.00;;;;;;;;;;4917296;29;20039;-92
2022/01/06 10:11:09;;;;;;;5.88;1.52;;;;;;;;;;4916384;29;20501;-93
2022/01/06 10:13:35;;;;;;;3.92;1.02;;;;;;;;;;4932247;29;20032;-93
2022/01/06 10:16:11;;;;;;;9.85;1.70;;;;;;;;;;4934116;29;20243;-96
2022/01/06 10:18:37;;;;;;;2.08;1.17;;;;;;;;;;4930799;29;20136;-95
2022/01/06 10:21:12;;;;;;;2.42;1.92;;;;;;;;;;4930864;29;20108;-93
2022/01/06 10:23:38;;;;;;;10.55;1.30;;;;;;;;;;4917856;29;20035;-95
2022/01/06 10:26:12;;;;;;;1.50;0.57;;;;;;;;;;4918483;29;20610;-95
2022/01/06 10:28:38;;;;;;;9.82;1.65;;;;;;;;;;4918013;29;20096;-96
2022/01/06 10:31:06;;;;;;;7.38;1.83;;;;;;;;;;4899821;29;20510;-96
2022/01/06 10:33:37;;;;;;;3.13;1.48;;;;;;;;;;4931655;29;20071;-93
2022/01/06 10:36:05;;;;;;;9.68;1.85;;;;;;;;;;4934914;29;20024;-93
2022/01/06 10:38:31;;;;;;;3.88;1.42;;;;;;;;;;4918144;29;20043;-93
2022/01/06 10:41:16;;;;;;;0.80;0.80;;;;;;;;;;4921829;29;20031;-93
2022/01/06 10:43:48;;;;;;;3.67;1.40;;;;;;;;;;4930640;29;20040;-94
2022/01/06 10:46:14;;;;;;;7.07;3.38;;;;;;;;;;4917335;29;20051;-94
2022/01/06 10:48:47;;;;;;;1.77;1.30;;;;;;;;;;4930292;29;20059;-96
2022/01/06 10:51:13;;;;;;;2.47;1.48;;;;;;;;;;4932095;29;20028;-93
2022/01/06 10:53:47;;;;;;;1.85;0.65;;;;;;;;;;4931068;29;20028;-96
2022/01/06 10:56:23;;;;;;;4.18;2.03;;;;;;;;;;4913378;29;20068;-93
2022/01/06 10:58:49;;;;;;;7.05;1.77;;;;;;;;;;4920299;29;20465;-94
2022/01/06 11:01:16;;;;;;;3.28;1.48;;;;;;;;;;4930714;29;20040;-95
2022/01/06 11:03:42;;;;;;;5.20;1.85;;;;;;;;;;4927920;29;20028;-93
2022/01/06 11:06:10;;;;;;;3.00;1.00;;;;;;;;;;4919271;29;20035;-93
2022/01/06 11:08:40;;;;;;;0.98;0.85;;;;;;;;;;4930924;29;20035;-92
2022/01/06 11:13:42;;;;;;;5.50;1.00;;;;;;;;;;4923973;29;20454;-91
2022/01/06 11:16:09;;;;;;;2.28;1.33;;;;;;;;;;4909235;29;20027;-93
2022/01/06 11:18:38;;;;;;;1.55;1.30;;;;;;;;;;4933645;29;20040;-94
2022/01/06 11:21:16;;;;;;;8.02;2.00;;;;;;;;;;4921366;29;20066;-94
2022/01/06 11:23:42;;;;;;;;;;;;;;;;;;4922628;29;20060;-96
2022/01/06 11:29:25;;;;;;;3.30;1.13;;;;;;;;;;4926117;29;20110;-96
2022/01/06 11:31:51;;;;;;;1.67;1.15;;;;;;;;;;4907264;29;20733;-91
2022/01/06 11:34:18;;;;;;;2.38;1.80;;;;;;;;;;4916407;29;20516;-94
2022/01/06 11:36:45;;;;;;;2.30;1.30;;;;;;;;;;4930819;29;20032;-92
2022/01/06 11:39:20;;;;;;;3.60;1.20;;;;;;;;;;4900010;29;20470;-93
2022/01/06 11:41:46;;;;;;;6.20;2.00;;;;;;;;;;4914948;29;20032;-92
2022/01/06 11:44:17;;;;;;;2.67;1.20;;;;;;;;;;4919054;29;20110;-93
2022/01/06 11:46:44;;;;;;;3.10;1.63;;;;;;;;;;4928918;29;20500;-93
2022/01/06 11:49:10;;;;;;;2.20;1.38;;;;;;;;;;4926017;29;20032;-92
2022/01/06 11:51:39;;;;;;;3.63;1.42;;;;;;;;;;4900568;29;20476;-94
2022/01/06 11:54:19;;;;;;;1.73;1.63;;;;;;;;;;4899718;29;20084;-92
2022/01/06 11:56:49;;;;;;;2.60;1.52;;;;;;;;;;4918334;29;20036;-93
2022/01/06 11:59:16;;;;;;;1.60;1.42;;;;;;;;;;4937032;29;20106;-94
2022/01/06 12:01:48;;;;;;;7.85;1.75;;;;;;;;;;4912331;29;20119;-93
2022/01/06 12:04:15;;;;;;;2.05;1.65;;;;;;;;;;4929816;29;20027;-94
2022/01/06 12:06:41;;;;;;;1.88;1.27;;;;;;;;;;4928773;29;20027;-91
2022/01/06 12:09:28;;;;;;;1.35;1.25;;;;;;;;;;4928797;29;20067;-93
2022/01/06 12:12:03;;;;;;;5.47;1.00;;;;;;;;;;4899310;29;20041;-93
2022/01/06 12:14:29;;;;;;;5.25;1.33;;;;;;;;;;4883246;29;20088;-93
2022/01/06 12:17:09;;;;;;;12.48;1.25;;;;;;;;;;4898113;29;20036;-94
2022/01/06 12:19:37;;;;;;;6.05;1.27;;;;;;;;;;4931017;29;20825;-92
2022/01/06 12:22:04;;;;;;;2.97;1.70;;;;;;;;;;4916670;29;20034;-93
2022/01/06 12:24:31;;;;;;;2.97;2.08;;;;;;;;;;4911406;29;20034;-91
2022/01/06 12:26:57;;;;;;;9.45;1.65;;;;;;;;;;4915230;29;20056;-93
2022/01/06 12:29:27;;;;;;;4.40;1.85;;;;;;;;;;4918838;29;20031;-93
2022/01/06 12:32:02;;;;;;;1.73;1.25;;;;;;;;;;4930446;29;20047;-93
2022/01/06 12:34:28;;;;;;;2.58;1.73;;;;;;;;;;4919146;29;20413;-93
2022/01/06 12:36:54;;;;;;;2.60;1.30;;;;;;;;;;4917527;29;20025;-92
2022/01/06 12:39:21;;;;;;;2.17;1.13;;;;;;;;;;4911046;29;20043;-93
2022/01/06 12:41:48;;;;;;;5.90;1.35;;;;;;;;;;4881623;29;20080;-93
2022/01/06 12:44:22;;;;;;;1.52;1.13;;;;;;;;;;4881583;29;20627;-91
2022/01/06 12:46:48;;;;;;;4.07;1.23;;;;;;;;;;4930485;29;20056;-92
2022/01/06 12:49:15;;;;;;;4.35;1.58;;;;;;;;;;4921489;29;20626;-91
2022/01/06 12:51:42;;;;;;;2.17;1.63;;;;;;;;;;4899846;29;20028;-94
2022/01/06 12:54:13;;;;;;;3.08;1.95;;;;;;;;;;4914557;29;20029;-93
2022/01/06 12:56:43;;;;;;;5.32;1.60;;;;;;;;;;4933484;29;20024;-94
2022/01/06 12:59:33;;;;;;;7.38;2.00;;;;;;;;;;4900493;29;20072;-94
2022/01/06 13:02:01;;;;;;;7.75;2.15;;;;;;;;;;4922776;29;20035;-94
2022/01/06 13:04:31;;;;;;;1.75;1.63;;;;;;;;;;4920011;29;20191;-94
2022/01/06 13:06:59;;;;;;;1.95;1.30;;;;;;;;;;4904332;29;20106;-96
2022/01/06 13:09:27;;;;;;;3.83;1.27;;;;;;;;;;4910846;29;20028;-93
2022/01/06 13:11:56;;;;;;;5.05;1.27;;;;;;;;;;4916655;29;20024;-92
2022/01/06 13:14:41;;;;;;;0.95;0.95;;;8.40;55.80;;;;;;4916678;29;20032;-92
2022/01/06 13:17:12;;;;;;;2.10;1.10;;;;;;;;;;4915397;29;20050;-93
2022/01/06 13:20:00;;;;;;;2.35;1.50;;;;;;;;;;4917091;29;20055;-93
2022/01/06 13:22:36;;;;;;;2.10;0.88;;;;;;;;;;4847577;29;20050;-95
2022/01/06 13:25:09;;;;;;;7.05;1.30;;;;;;;;;;4839799;29;20150;-94
2022/01/06 13:27:36;;;;;;;2.00;1.30;;;;;;;;;;4839820;29;20093;-94
2022/01/06 13:30:03;;;;;;;4.30;1.15;;;;;;;;;;4839265;29;20505;-92
2022/01/06 13:32:29;;;;;;;4.97;2.23;;;;;;;;;;4839987;29;20041;-96
2022/01/06 13:35:05;;;;;;;6.72;2.45;;;;;;;;;;4822933;29;20381;-96
2022/01/06 13:37:32;;;;;;;7.03;2.15;;;;;;;;;;4829446;29;20038;-96
2022/01/06 13:40:11;;;;;;;4.20;2.13;;;;;;;;;;4840602;29;20193;-96
2022/01/06 13:42:39;;;;;;;1.35;1.17;;;;;;;;;;4840214;29;20038;-96
2022/01/06 13:45:14;;;;;;;2.42;1.85;;;;;;;;;;4840851;29;20042;-96
2022/01/06 13:47:51;;;;;;;3.08;2.20;;;;;;;;;;4853339;29;20041;-95
2022/01/06 13:53:37;;;;;;;1.85;1.08;;;;;;;;;;4821851;29;20049;-95
2022/01/06 13:56:08;;;;;;;2.13;1.27;;;7.90;57.20;;;;;;4821902;29;20050;-95
2022/01/06 13:58:36;;;;;;;1.35;1.23;;;7.90;57.80;;;;;;4844533;29;20068;-94
2022/01/06 14:01:03;;;;;;;8.07;2.33;;;7.80;58.10;;;;;;4888544;29;20032;-94
2022/01/06 14:03:34;;;;;;;3.95;1.80;;;;;;;;;;4885776;29;20498;-95
2022/01/06 14:06:04;;;;;;;7.78;2.05;;;;;;;;;;4911476;29;20029;-94
2022/01/06 14:08:30;;;;;;;2.92;1.30;;;;;;;;;;4897767;29;20115;-94
2022/01/06 14:10:57;;;;;;;2.60;1.65;;;;;;;;;;4913252;29;20032;-93
2022/01/06 14:13:23;;;;;;;6.07;1.20;;;;;;;;;;4929254;29;20087;-96
2022/01/06 14:15:49;;;;;;;4.85;2.35;;;;;;;;;;4910386;29;20378;-94
2022/01/06 14:18:15;;;;;;;3.45;1.27;;;;;;;;;;4930784;29;20032;-96
2022/01/06 14:20:42;;;;;;;1.17;0.82;;;;;;;;;;4932768;29;20046;-96
2022/01/06 14:23:08;;;;;;;4.38;1.70;;;;;;;;;;4916606;29;20028;-95
2022/01/06 14:25:34;;;;;;;2.90;1.15;;;;;;;;;;4909275;29;20489;-94
2022/01/06 14:28:00;;;;;;;11.48;3.22;;;;;;;;;;4922368;29;20135;-96
2022/01/06 14:30:26;;;;;;;2.67;1.67;;;;;;;;;;4915622;29;20096;-96
2022/01/06 14:32:52;;;;;;;6.93;2.63;;;;;;;;;;4911536;29;20056;-96
2022/01/06 14:35:19;;;;;;;3.17;1.60;;;;;;;;;;4889537;29;20520;-93
2022/01/06 14:37:45;;;;;;;2.53;1.58;;;;;;;;;;4917752;29;20379;-96
2022/01/06 14:40:11;;;;;;;4.53;2.17;;;;;;;;;;4917071;29;20025;-96
2022/01/06 14:42:39;;;;;;;2.95;1.30;;;;;;;;;;4891642;29;20035;-96
2022/01/06 14:45:05;;;;;;;1.10;1.00;;;;;;;;;;4901860;29;20021;-95
2022/01/06 14:47:31;;;;;;;6.35;1.85;;;;;;;;;;4924587;29;20087;-95
2022/01/06 14:50:00;;;;;;;5.78;1.50;;;;;;;;;;4901399;29;20116;-96
2022/01/06 14:52:26;;;;;;;1.60;1.50;;;;;;;;;;4926435;29;20872;-96
2022/01/06 14:54:52;;;;;;;16.10;2.83;;;;;;;;;;4898062;29;20036;-94
2022/01/06 14:57:19;;;;;;;2.08;1.38;;;;;;;;;;4884518;29;20040;-95
2022/01/06 14:59:46;;;;;;;4.63;1.63;;;;;;;;;;4934871;29;20051;-96
2022/01/06 15:02:20;;;;;;;3.33;2.25;;;;;;;;;;4920409;29;20469;-96